Time;durP1;ratioP1;P1;durP2;ratioP2;P2;SDS_P1;SDS_P2;PMS_P1;PMS_P2;Temp;Humidity;BMP_temperature;BMP_pressure;BME280_temperature;BME280_humidity;BME280_pressure;Samples;Min_cycle;Max_cycle;Signal;HPM_P1;HPM_P2
2023/04/25 00:01:51;;;;;;;9.30;4.43;;;;;;;7.46;82.94;99928.69;5003893;28;20714;-66
2023/04/25 00:04:17;;;;;;;12.60;4.73;;;;;;;7.47;82.90;99932.19;5005827;28;20694;-67
2023/04/25 00:06:45;;;;;;;11.53;4.40;;;;;;;7.45;83.29;99927.00;5007880;28;20727;-65
2023/04/25 00:09:12;;;;;;;9.37;4.00;;;;;;;7.44;83.56;99927.94;5003514;28;20207;-66
2023/04/25 00:11:38;;;;;;;10.40;4.90;;;;;;;7.42;83.34;99916.56;5004122;28;20220;-67
2023/04/25 00:14:06;;;;;;;7.67;4.23;;;;;;;7.41;83.53;99928.13;5006374;28;20243;-67
2023/04/25 00:16:34;;;;;;;10.30;4.57;;;;;;;7.40;83.34;99926.41;5003157;28;20727;-65
2023/04/25 00:19:02;;;;;;;7.77;4.03;;;;;;;7.38;82.96;99935.41;5005678;28;20213;-67
2023/04/25 00:21:29;;;;;;;11.20;4.07;;;;;;;7.36;83.42;99934.63;5006651;28;20202;-68
2023/04/25 00:23:57;;;;;;;10.90;4.43;;;;;;;7.35;83.86;99931.13;5004858;28;20203;-67
2023/04/25 00:26:23;;;;;;;9.03;4.40;;;;;;;7.34;83.37;99932.09;5007253;28;20607;-69
2023/04/25 00:28:49;;;;;;;8.53;4.47;;;;;;;7.32;83.08;99937.50;5007222;28;20209;-68
2023/04/25 00:31:16;;;;;;;11.07;4.77;;;;;;;7.31;83.34;99934.94;5006952;28;20257;-69
2023/04/25 00:33:42;;;;;;;6.73;4.10;;;;;;;7.28;83.44;99933.31;5003331;28;20662;-69
2023/04/25 00:36:09;;;;;;;10.47;5.03;;;;;;;7.25;83.63;99933.50;5005886;28;20238;-69
2023/04/25 00:38:37;;;;;;;7.20;4.70;;;;;;;7.23;83.95;99932.75;5006764;28;20242;-69
2023/04/25 00:41:06;;;;;;;10.20;4.97;;;;;;;7.22;83.74;99928.41;5005930;28;20761;-69
2023/04/25 00:43:33;;;;;;;8.13;4.50;;;;;;;7.22;83.59;99936.34;5005045;28;20223;-69
2023/04/25 00:46:01;;;;;;;8.97;5.00;;;;;;;7.21;83.17;99937.28;5004562;28;20241;-69
2023/04/25 00:48:27;;;;;;;10.27;5.17;;;;;;;7.21;84.10;99934.63;5000271;28;20207;-70
2023/04/25 00:50:55;;;;;;;10.50;5.10;;;;;;;7.20;84.40;99926.78;5006295;28;20214;-68
2023/04/25 00:53:23;;;;;;;9.30;4.80;;;;;;;7.15;84.16;99924.44;5005947;28;20627;-69
2023/04/25 00:55:50;;;;;;;11.13;5.13;;;;;;;7.13;84.22;99928.97;5005162;28;20226;-68
2023/04/25 00:58:18;;;;;;;10.73;5.80;;;;;;;7.13;84.33;99930.75;5006888;28;20203;-69
2023/04/25 01:00:46;;;;;;;12.30;5.87;;;;;;;7.12;84.04;99929.06;5005630;28;20203;-68
2023/04/25 01:03:13;;;;;;;13.87;5.47;;;;;;;7.11;84.89;99925.56;5006020;28;20226;-69
2023/04/25 01:05:41;;;;;;;9.37;5.80;;;;;;;7.08;85.03;99933.69;5005570;28;20500;-68
2023/04/25 01:08:08;;;;;;;9.17;5.20;;;;;;;7.08;84.97;99931.03;5006124;28;20203;-69
2023/04/25 01:10:34;;;;;;;10.80;5.67;;;;;;;7.05;85.14;99927.72;5005873;28;20210;-69
2023/04/25 01:13:01;;;;;;;11.83;6.30;;;;;;;7.05;85.41;99922.41;5005765;28;20207;-70
2023/04/25 01:15:29;;;;;;;12.93;6.00;;;;;;;7.05;85.11;99919.78;5006394;28;20257;-65
2023/04/25 01:17:55;;;;;;;11.90;6.07;;;;;;;7.03;85.32;99916.34;5005934;28;20221;-68
2023/04/25 01:20:23;;;;;;;8.40;5.93;;;;;;;7.05;85.41;99911.81;5003090;28;20230;-67
2023/04/25 01:22:53;;;;;;;12.63;5.80;;;;;;;7.04;85.98;99918.91;5003766;28;20742;-69
2023/04/25 01:25:20;;;;;;;12.53;6.60;;;;;;;7.04;85.31;99918.06;5006569;28;20476;-69
2023/04/25 01:27:47;;;;;;;13.80;6.33;;;;;;;7.04;85.77;99920.72;5006117;28;20268;-68
2023/04/25 01:30:14;;;;;;;8.77;5.80;;;;;;;7.02;85.79;99914.66;5003237;28;20234;-68
2023/04/25 01:32:42;;;;;;;12.40;6.67;;;;;;;7.03;86.25;99919.00;5002534;28;20671;-68
2023/04/25 01:35:11;;;;;;;14.43;5.57;;;;;;;7.01;86.01;99921.75;5005581;28;20242;-68
2023/04/25 01:37:38;;;;;;;14.00;6.80;;;;;;;7.01;86.57;99921.75;5006213;28;20788;-68
2023/04/25 01:40:08;;;;;;;11.47;6.53;;;;;;;7.03;86.59;99924.31;5006937;28;20203;-69
2023/04/25 01:42:36;;;;;;;12.07;6.37;;;;;;;7.03;86.64;99932.25;5003483;28;20242;-67
2023/04/25 01:45:04;;;;;;;13.17;7.03;;;;;;;7.01;86.62;99932.34;5006147;28;20233;-67
2023/04/25 01:47:31;;;;;;;13.50;6.83;;;;;;;7.02;86.77;99934.03;5004792;28;20206;-67
2023/04/25 01:49:57;;;;;;;15.43;7.87;;;;;;;7.02;87.03;99933.19;5002613;28;20204;-65
2023/04/25 01:52:24;;;;;;;14.27;7.00;;;;;;;7.02;87.20;99936.69;5003849;28;20203;-67
2023/04/25 01:54:52;;;;;;;12.23;6.87;;;;;;;7.01;86.84;99934.13;5002217;28;20226;-68
2023/04/25 01:57:19;;;;;;;15.13;6.63;;;;;;;7.00;87.30;99940.38;5005359;28;20222;-66
2023/04/25 01:59:47;;;;;;;12.43;7.27;;;;;;;6.97;87.34;99938.78;5002311;28;20579;-67
2023/04/25 02:02:13;;;;;;;14.33;7.17;;;;;;;6.96;88.00;99932.63;5006358;28;20210;-68
2023/04/25 02:04:40;;;;;;;14.10;7.27;;;;;;;6.96;87.77;99940.56;5006232;28;20215;-66
2023/04/25 02:07:06;;;;;;;13.57;7.20;;;;;;;6.97;88.18;99936.13;5003885;28;20259;-68
2023/04/25 02:09:33;;;;;;;14.53;7.20;;;;;;;6.99;87.97;99943.97;5005772;28;20712;-68
2023/04/25 02:12:00;;;;;;;14.43;7.40;;;;;;;6.97;88.19;99942.28;5006760;28;20211;-67
2023/04/25 02:14:28;;;;;;;11.00;6.93;;;;;;;6.99;87.95;99949.28;5009481;28;20199;-67
2023/04/25 02:16:55;;;;;;;15.30;8.20;;;;;;;6.95;88.47;99944.16;5010388;28;20211;-67
2023/04/25 02:19:21;;;;;;;12.57;7.47;;;;;;;6.95;88.48;99943.31;5007468;28;20199;-67
2023/04/25 02:21:47;;;;;;;15.63;7.33;;;;;;;6.96;88.56;99947.66;5009356;28;20199;-68
2023/04/25 02:24:14;;;;;;;15.43;7.80;;;;;;;6.94;88.38;99946.91;5007380;28;20226;-67
2023/04/25 02:26:40;;;;;;;15.50;8.00;;;;;;;6.93;88.63;99940.75;5010549;28;20219;-68
2023/04/25 02:29:07;;;;;;;8.60;7.20;;;;;;;6.94;89.07;99953.03;5009073;28;20207;-69
2023/04/25 02:31:35;;;;;;;15.00;7.83;;;;;;;6.94;89.75;99946.91;5005614;28;20208;-69
2023/04/25 02:34:01;;;;;;;13.10;7.90;;;;;;;6.91;89.63;99949.72;5006504;28;20223;-69
2023/04/25 02:36:30;;;;;;;13.23;7.37;;;;;;;6.92;89.59;99954.94;5009873;28;20227;-68
2023/04/25 02:38:56;;;;;;;14.73;7.07;;;;;;;6.92;90.01;99947.00;5008348;28;20215;-68
2023/04/25 02:41:22;;;;;;;12.50;6.47;;;;;;;6.90;89.86;99948.88;5008551;28;20205;-68
2023/04/25 02:43:49;;;;;;;15.17;7.37;;;;;;;6.90;90.18;99948.88;5002595;28;20231;-67
2023/04/25 02:46:15;;;;;;;13.33;6.93;;;;;;;6.87;90.74;99948.19;5008922;28;20642;-69
2023/04/25 02:48:43;;;;;;;12.60;6.30;;;;;;;6.84;90.90;99954.50;5009002;28;20207;-68
2023/04/25 02:51:10;;;;;;;11.37;6.77;;;;;;;6.85;90.91;99958.88;5007938;28;20211;-67
2023/04/25 02:53:36;;;;;;;9.13;6.27;;;;;;;6.81;91.90;99952.03;5008375;28;20759;-69
2023/04/25 02:56:03;;;;;;;10.33;6.70;;;;;;;6.81;92.00;99962.63;5008283;28;20227;-68
2023/04/25 02:58:29;;;;;;;8.47;5.83;;;;;;;6.79;92.30;99964.53;5006955;28;20214;-69
2023/04/25 03:00:56;;;;;;;8.67;5.83;;;;;;;6.79;92.91;99975.13;5000226;28;20222;-68
2023/04/25 03:03:22;;;;;;;8.37;6.03;;;;;;;6.78;93.35;99978.72;5006944;28;20228;-68
2023/04/25 03:05:50;;;;;;;8.07;5.83;;;;;;;6.78;92.95;99983.16;5003676;28;20227;-69
2023/04/25 03:08:17;;;;;;;11.77;5.00;;;;;;;6.74;93.45;99977.19;5007320;28;20238;-68
2023/04/25 03:10:43;;;;;;;12.87;5.07;;;;;;;6.71;93.52;99993.22;5006036;28;20902;-68
2023/04/25 03:13:10;;;;;;;11.83;4.87;;;;;;;6.71;93.43;99987.94;5007618;28;20218;-68
2023/04/25 03:15:37;;;;;;;10.07;4.33;;;;;;;6.70;93.54;99990.69;5009373;28;20233;-69
2023/04/25 03:18:03;;;;;;;10.93;4.93;;;;;;;6.68;93.79;99993.41;5006555;28;20203;-71
2023/04/25 03:20:30;;;;;;;9.10;4.90;;;;;;;6.65;93.74;99985.63;5006487;28;20372;-70
2023/04/25 03:22:58;;;;;;;10.70;4.10;;;;;;;6.65;93.64;99992.72;5008374;28;20222;-70
2023/04/25 03:25:25;;;;;;;11.33;4.43;;;;;;;6.65;93.63;99998.00;5004672;28;20700;-70
2023/04/25 03:27:51;;;;;;;11.43;4.20;;;;;;;6.63;93.45;99986.69;5008561;28;20207;-69
2023/04/25 03:30:18;;;;;;;11.83;4.30;;;;;;;6.59;93.62;99991.31;5007553;28;20214;-71
2023/04/25 03:32:44;;;;;;;12.70;4.60;;;;;;;6.57;93.78;99991.38;5007709;28;20214;-71
2023/04/25 03:35:11;;;;;;;12.57;3.73;;;;;;;6.57;93.60;99987.91;5007456;28;20230;-70
2023/04/25 03:37:37;;;;;;;11.70;3.60;;;;;;;6.56;93.28;99996.75;5008688;28;20199;-69
2023/04/25 03:40:07;;;;;;;9.97;3.20;;;;;;;6.54;93.09;100001.28;5006472;28;20203;-69
2023/04/25 03:42:33;;;;;;;11.10;3.90;;;;;;;6.54;93.33;100004.78;5008208;28;20205;-69
2023/04/25 03:45:00;;;;;;;14.93;4.20;;;;;;;6.53;93.45;100010.16;5005153;28;20238;-69
2023/04/25 03:47:26;;;;;;;12.40;4.10;;;;;;;6.52;93.16;100017.25;5002918;28;20203;-69
2023/04/25 03:49:53;;;;;;;12.27;4.47;;;;;;;6.54;93.62;100022.44;5006708;28;20577;-68
2023/04/25 03:52:19;;;;;;;13.93;5.20;;;;;;;6.53;93.63;100023.38;5007752;28;20203;-70
2023/04/25 03:54:46;;;;;;;11.47;4.90;;;;;;;6.54;93.33;100022.44;5003846;28;20220;-70
2023/04/25 03:57:14;;;;;;;14.83;4.80;;;;;;;6.54;93.64;100025.09;5006696;28;20207;-68
2023/04/25 03:59:40;;;;;;;11.13;4.33;;;;;;;6.55;93.54;100024.16;5003887;28;20711;-69
2023/04/25 04:02:07;;;;;;;11.83;4.07;;;;;;;6.55;93.96;100025.00;5005537;28;20207;-66
2023/04/25 04:04:33;;;;;;;11.77;3.93;;;;;;;6.56;93.65;100031.16;5008645;28;20223;-69
2023/04/25 04:07:00;;;;;;;10.60;4.17;;;;;;;6.57;94.28;100032.88;5007062;28;20218;-69
2023/04/25 04:09:27;;;;;;;10.33;4.00;;;;;;;6.59;93.92;100041.56;5002717;28;20261;-70
2023/04/25 04:11:53;;;;;;;13.10;4.30;;;;;;;6.57;94.00;100039.00;4999868;28;20211;-69
2023/04/25 04:14:21;;;;;;;9.80;4.30;;;;;;;6.56;94.03;100039.09;5004730;28;20218;-67
2023/04/25 04:16:48;;;;;;;15.00;4.47;;;;;;;6.55;93.99;100040.03;5005058;28;20486;-67
2023/04/25 04:19:15;;;;;;;16.77;4.77;;;;;;;6.55;94.15;100047.97;5004168;28;20210;-71
2023/04/25 04:21:42;;;;;;;22.47;5.70;;;;;;;6.53;94.13;100041.91;5005082;28;20214;-71
2023/04/25 04:24:08;;;;;;;15.87;4.97;;;;;;;6.50;94.04;100047.38;5005153;28;20223;-69
2023/04/25 04:26:35;;;;;;;12.53;3.83;;;;;;;6.50;94.09;100040.28;5006905;28;20648;-69
2023/04/25 04:29:01;;;;;;;16.30;4.63;;;;;;;6.50;94.55;100042.06;5002838;28;20238;-71
2023/04/25 04:31:29;;;;;;;14.93;4.37;;;;;;;6.48;94.28;100043.94;5006380;28;20206;-70
2023/04/25 04:33:56;;;;;;;14.63;4.63;;;;;;;6.47;94.45;100044.88;5000780;28;20211;-69
2023/04/25 04:36:23;;;;;;;14.37;4.03;;;;;;;6.47;94.18;100052.81;5002313;28;20218;-66
2023/04/25 04:38:49;;;;;;;15.50;4.87;;;;;;;6.47;94.58;100069.53;5003250;28;20691;-69
2023/04/25 04:41:16;;;;;;;19.00;4.73;;;;;;;6.47;94.58;100066.91;5006327;28;20207;-69
2023/04/25 04:43:43;;;;;;;11.20;4.93;;;;;;;6.48;94.46;100068.63;4997327;28;20234;-72
2023/04/25 04:46:10;;;;;;;13.03;4.80;;;;;;;6.50;94.23;100071.19;5005768;28;20222;-70
2023/04/25 04:48:39;;;;;;;17.07;4.57;;;;;;;6.49;94.16;100075.59;4999835;28;20318;-69
2023/04/25 04:51:06;;;;;;;13.60;4.13;;;;;;;6.50;94.44;100076.47;5005941;28;20293;-70
2023/04/25 04:53:33;;;;;;;18.07;4.97;;;;;;;6.50;94.37;100077.31;5003039;28;20580;-69
2023/04/25 04:55:59;;;;;;;15.60;4.53;;;;;;;6.49;93.75;100080.03;5004742;28;20226;-69
2023/04/25 04:58:29;;;;;;;18.97;4.67;;;;;;;6.48;93.80;100087.13;5005212;28;20203;-70
2023/04/25 05:00:55;;;;;;;19.00;4.17;;;;;;;6.49;93.80;100093.28;5004079;28;20667;-71
2023/04/25 05:03:22;;;;;;;20.37;4.90;;;;;;;6.49;93.87;100096.78;5003916;28;20228;-70
2023/04/25 05:05:50;;;;;;;15.30;4.33;;;;;;;6.49;93.31;100093.28;5006278;28;20219;-70
2023/04/25 05:08:16;;;;;;;12.40;4.20;;;;;;;6.52;93.51;100093.97;5002504;28;20401;-69
2023/04/25 05:10:43;;;;;;;13.13;4.07;;;;;;;6.52;92.97;100099.25;5005005;28;20214;-69
2023/04/25 05:13:09;;;;;;;17.27;4.33;;;;;;;6.52;92.89;100107.19;5002903;28;20683;-70
2023/04/25 05:15:35;;;;;;;14.77;4.83;;;;;;;6.54;93.24;100109.75;4997315;28;20231;-70
2023/04/25 05:18:03;;;;;;;20.57;4.93;;;;;;;6.55;92.96;100114.97;5005868;28;20214;-70
2023/04/25 05:20:29;;;;;;;11.37;4.10;;;;;;;6.57;92.85;100105.16;5002686;28;20211;-69
2023/04/25 05:22:57;;;;;;;13.13;4.60;;;;;;;6.60;92.53;100117.38;5004998;28;20269;-69
2023/04/25 05:25:24;;;;;;;17.97;4.67;;;;;;;6.63;92.56;100116.34;5005832;28;20246;-69
2023/04/25 05:27:51;;;;;;;14.40;4.57;;;;;;;6.66;92.41;100113.50;5005735;28;20471;-69
2023/04/25 05:30:17;;;;;;;19.43;4.67;;;;;;;6.69;92.68;100121.28;5001770;28;20295;-69
2023/04/25 05:32:43;;;;;;;16.33;4.40;;;;;;;6.71;92.30;100122.91;5006652;28;20691;-70
2023/04/25 05:35:10;;;;;;;15.80;4.90;;;;;;;6.69;92.02;100119.47;5005297;28;20226;-69
2023/04/25 05:37:36;;;;;;;13.03;4.57;;;;;;;6.71;91.22;100124.69;5006442;28;20584;-69
2023/04/25 05:40:06;;;;;;;17.57;4.43;;;;;;;6.71;91.24;100125.53;5004884;28;20207;-69
2023/04/25 05:42:33;;;;;;;17.03;4.30;;;;;;;6.73;91.41;100131.63;5005165;28;20211;-68
2023/04/25 05:44:59;;;;;;;15.87;4.20;;;;;;;6.74;90.70;100135.97;5004459;28;20227;-70
2023/04/25 05:47:25;;;;;;;12.77;5.03;;;;;;;6.77;90.43;100137.59;5007840;28;20206;-70
2023/04/25 05:49:52;;;;;;;13.53;4.10;;;;;;;6.79;90.54;100141.00;5009917;28;20652;-69
2023/04/25 05:52:19;;;;;;;16.57;4.73;;;;;;;6.80;89.77;100143.56;5010627;28;20211;-70
2023/04/25 05:54:45;;;;;;;15.43;3.77;;;;;;;6.78;89.47;100148.09;5008205;28;20222;-68
2023/04/25 05:57:21;;;;;;;16.17;4.23;;;;;;;6.81;89.02;100147.91;5005476;28;20606;-69
2023/04/25 05:59:47;;;;;;;13.20;4.17;;;;;;;6.84;88.65;100157.47;5005659;28;20221;-69
2023/04/25 06:02:14;;;;;;;19.07;5.77;;;;;;;6.90;88.24;100151.84;5008870;28;20207;-70
2023/04/25 06:04:40;;;;;;;17.70;4.03;;;;;;;6.94;87.80;100159.53;5008921;28;20237;-72
2023/04/25 06:07:07;;;;;;;17.10;4.70;;;;;;;6.98;87.80;100157.56;5007236;28;20199;-69
2023/04/25 06:09:35;;;;;;;12.10;3.43;;;;;;;6.97;86.59;100159.38;5008024;28;20206;-69
2023/04/25 06:12:01;;;;;;;19.20;5.07;;;;;;;6.98;85.32;100168.16;5006596;28;20881;-70
2023/04/25 06:14:30;;;;;;;18.70;4.23;;;;;;;6.97;84.76;100175.25;5007452;28;20205;-71
2023/04/25 06:16:56;;;;;;;11.83;3.60;;;;;;;6.95;83.38;100177.13;5004146;28;20213;-69
2023/04/25 06:19:23;;;;;;;14.97;3.90;;;;;;;6.93;82.52;100176.34;5004512;28;20211;-70
2023/04/25 06:21:49;;;;;;;9.63;2.60;;;;;;;6.93;82.10;100179.00;5004694;28;20207;-71
2023/04/25 06:24:16;;;;;;;12.00;3.07;;;;;;;6.93;81.35;100183.44;5009610;28;20233;-69
2023/04/25 06:26:42;;;;;;;10.33;3.17;;;;;;;6.95;80.99;100181.56;5005435;28;21569;-70
2023/04/25 06:29:09;;;;;;;12.30;3.10;;;;;;;6.96;80.47;100180.63;5007446;28;20218;-70
2023/04/25 06:31:37;;;;;;;19.00;3.10;;;;;;;7.00;79.77;100176.84;5003016;28;20591;-70
2023/04/25 06:34:03;;;;;;;9.87;2.90;;;;;;;7.04;79.54;100181.03;5007266;28;20195;-68
2023/04/25 06:36:30;;;;;;;14.63;3.47;;;;;;;7.05;79.45;100187.19;5005523;28;20231;-70
2023/04/25 06:38:56;;;;;;;16.17;3.70;;;;;;;7.09;78.75;100188.72;5006740;28;20230;-71
2023/04/25 06:41:23;;;;;;;14.30;3.40;;;;;;;7.10;78.29;100191.28;4997845;28;20262;-70
2023/04/25 06:43:49;;;;;;;11.70;3.20;;;;;;;7.12;77.57;100189.41;5001948;28;20223;-71
2023/04/25 06:46:16;;;;;;;18.27;3.17;;;;;;;7.16;76.92;100196.25;5006010;28;20222;-70
2023/04/25 06:48:44;;;;;;;13.83;3.50;;;;;;;7.21;76.96;100193.31;5006334;28;20700;-70
2023/04/25 06:51:10;;;;;;;22.57;4.73;;;;;;;7.26;76.10;100196.56;5003448;28;20210;-69
2023/04/25 06:53:37;;;;;;;18.73;4.10;;;;;;;7.32;75.83;100193.59;5003103;28;20315;-71
2023/04/25 06:56:04;;;;;;;17.70;3.47;;;;;;;7.41;75.93;100190.41;5005674;28;20234;-70
2023/04/25 06:58:30;;;;;;;10.40;2.90;;;;;;;7.51;75.27;100199.53;5005564;28;20374;-70
2023/04/25 07:00:57;;;;;;;10.10;2.77;;;;;;;7.59;74.88;100207.88;5006076;28;20210;-70
2023/04/25 07:03:23;;;;;;;12.10;3.03;;;;;;;7.69;73.58;100199.41;5005146;28;20217;-70
2023/04/25 07:05:51;;;;;;;11.60;3.07;;;;;;;7.79;72.86;100196.13;5008092;28;20641;-71
2023/04/25 07:08:18;;;;;;;10.40;2.90;;;;;;;7.91;72.61;100192.72;5004117;28;20699;-71
2023/04/25 07:10:45;;;;;;;9.57;3.03;;;;;;;8.04;72.08;100192.88;5005174;28;20207;-70
2023/04/25 07:13:12;;;;;;;10.67;2.57;;;;;;;8.12;70.60;100203.00;5003082;28;20203;-71
2023/04/25 07:15:39;;;;;;;9.73;2.40;;;;;;;8.12;69.75;100203.00;5008203;28;20226;-71
2023/04/25 07:18:05;;;;;;;13.97;2.23;;;;;;;8.07;67.90;100205.91;5003894;28;20212;-70
2023/04/25 07:20:32;;;;;;;7.30;2.33;;;;;;;8.10;67.05;100208.38;5009557;28;20214;-70
2023/04/25 07:23:00;;;;;;;9.63;2.83;;;;;;;8.19;66.30;100215.81;5002959;28;20296;-70
2023/04/25 07:25:26;;;;;;;10.40;2.70;;;;;;;8.24;65.52;100213.72;5008207;28;20229;-71
2023/04/25 07:27:53;;;;;;;10.07;2.63;;;;;;;8.31;65.33;100217.72;5001527;28;20210;-70
2023/04/25 07:30:20;;;;;;;8.83;2.47;;;;;;;8.34;64.63;100220.22;5006959;28;20691;-70
2023/04/25 07:32:46;;;;;;;15.50;3.00;;;;;;;8.32;64.11;100224.75;5006005;28;20672;-73
2023/04/25 07:35:13;;;;;;;17.43;3.53;;;;;;;8.37;63.95;100213.88;5007559;28;20234;-70
2023/04/25 07:37:39;;;;;;;10.93;2.73;;;;;;;8.45;62.90;100221.34;5005238;28;20214;-70
2023/04/25 07:40:09;;;;;;;16.93;3.10;;;;;;;8.47;62.91;100215.00;5006438;28;20214;-70
2023/04/25 07:42:36;;;;;;;10.50;2.80;;;;;;;8.50;62.84;100213.97;5004702;28;20202;-70
2023/04/25 07:45:03;;;;;;;7.40;2.27;;;;;;;8.53;62.88;100217.28;5005377;28;20583;-71
2023/04/25 07:47:29;;;;;;;8.27;2.37;;;;;;;8.58;63.16;100222.31;5004730;28;20207;-71
2023/04/25 07:49:57;;;;;;;7.33;2.43;;;;;;;8.63;62.55;100223.72;5006342;28;20211;-70
2023/04/25 07:52:24;;;;;;;9.90;2.20;;;;;;;8.63;62.19;100228.16;5005498;28;20208;-70
2023/04/25 07:54:50;;;;;;;11.00;2.67;;;;;;;8.66;61.79;100220.88;5008511;28;20226;-71
2023/04/25 07:57:19;;;;;;;11.40;2.70;;;;;;;8.68;61.76;100231.41;5005976;28;20207;-69
2023/04/25 07:59:45;;;;;;;8.77;2.60;;;;;;;8.64;61.89;100228.09;5007969;28;20202;-70
2023/04/25 08:02:12;;;;;;;11.47;2.77;;;;;;;8.63;61.49;100229.03;5005245;28;20211;-70
2023/04/25 08:04:38;;;;;;;8.57;2.27;;;;;;;8.61;62.34;100244.19;5007070;28;21086;-70
2023/04/25 08:07:05;;;;;;;8.07;2.43;;;;;;;8.58;63.21;100247.06;5000931;28;20214;-72
2023/04/25 08:09:34;;;;;;;8.50;2.03;;;;;;;8.58;62.90;100243.56;4999063;28;20225;-71
2023/04/25 08:12:01;;;;;;;4.57;2.50;;;;;;;8.57;64.19;100250.66;5004845;28;20573;-70
2023/04/25 08:14:35;;;;;;;7.97;2.30;;;;;;;8.54;63.23;100252.66;5003066;28;20214;-71
2023/04/25 08:17:01;;;;;;;5.77;2.07;;;;;;;8.53;63.16;100258.91;5002475;28;20216;-70
2023/04/25 08:19:28;;;;;;;11.37;2.83;;;;;;;8.48;62.58;100253.00;5002286;28;20206;-72
2023/04/25 08:21:55;;;;;;;8.17;2.10;;;;;;;8.51;63.71;100263.44;4999159;28;20215;-70
2023/04/25 08:24:22;;;;;;;9.13;2.00;;;;;;;8.55;62.91;100268.47;5005155;28;20199;-69
2023/04/25 08:26:48;;;;;;;10.87;2.30;;;;;;;8.57;63.20;100269.25;5000285;28;20231;-70
2023/04/25 08:29:15;;;;;;;11.17;2.10;;;;;;;8.57;61.54;100277.22;5001602;28;20199;-69
2023/04/25 08:31:43;;;;;;;7.63;1.93;;;;;;;8.54;59.86;100269.44;4994894;28;20214;-69
2023/04/25 08:34:09;;;;;;;11.57;2.60;;;;;;;8.55;59.50;100276.44;4994751;28;20248;-71
2023/04/25 08:36:36;;;;;;;6.37;1.67;;;;;;;8.62;59.17;100271.59;5004024;28;20235;-68
2023/04/25 08:39:02;;;;;;;10.10;2.10;;;;;;;8.62;58.18;100280.41;4998645;28;20207;-69
2023/04/25 08:41:29;;;;;;;5.93;1.70;;;;;;;8.72;58.11;100283.38;5000422;28;20223;-73
2023/04/25 08:43:59;;;;;;;8.43;2.07;;;;;;;8.85;58.65;100276.34;5002261;28;20218;-70
2023/04/25 08:46:26;;;;;;;12.77;2.37;;;;;;;9.00;57.51;100286.00;5001231;28;20289;-70
2023/04/25 08:48:59;;;;;;;8.10;1.83;;;;;;;9.15;57.50;100294.81;4991079;28;20218;-70
2023/04/25 08:51:27;;;;;;;5.93;1.87;;;;;;;9.27;56.00;100291.41;4999404;28;20208;-71
2023/04/25 08:53:54;;;;;;;7.00;1.40;;;;;;;9.37;55.35;100291.66;5003309;28;20206;-71
2023/04/25 08:56:23;;;;;;;11.30;1.97;;;;;;;9.48;54.66;100290.97;5000066;28;20276;-70
2023/04/25 08:58:50;;;;;;;5.53;1.70;;;;;;;9.60;54.43;100293.69;5000106;28;20735;-69
2023/04/25 09:01:18;;;;;;;7.63;1.43;;;;;;;9.80;54.87;100300.38;5002035;28;20210;-71
2023/04/25 09:03:45;;;;;;;6.03;1.80;;;;;;;9.95;53.24;100302.03;4998767;28;20222;-72
2023/04/25 09:06:13;;;;;;;6.50;1.73;;;;;;;10.09;52.26;100301.09;5000366;28;20241;-69
2023/04/25 09:08:40;;;;;;;5.27;1.93;;;;;;;10.17;51.70;100304.09;5005109;28;20576;-69
2023/04/25 09:11:07;;;;;;;9.23;2.03;;;;;;;10.14;50.67;100298.97;5001620;28;20654;-70
2023/04/25 09:13:34;;;;;;;5.37;1.80;;;;;;;10.10;50.45;100303.66;5003592;28;20290;-69
2023/04/25 09:16:01;;;;;;;5.93;1.63;;;;;;;10.05;50.76;100311.09;4997321;28;20305;-71
2023/04/25 09:18:29;;;;;;;4.97;1.90;;;;;;;9.99;51.23;100311.50;5004531;28;20457;-71
2023/04/25 09:20:57;;;;;;;6.20;1.93;;;;;;;9.96;50.84;100324.16;5000677;28;20249;-73
2023/04/25 09:23:25;;;;;;;6.70;1.57;;;;;;;9.91;50.77;100334.22;5006568;28;20206;-69
2023/04/25 09:25:53;;;;;;;5.97;1.30;;;;;;;9.81;51.00;100338.47;5004808;28;20227;-71
2023/04/25 09:28:25;;;;;;;4.77;2.13;;;;;;;9.71;51.42;100338.19;5002941;28;20400;-70
2023/04/25 09:30:57;;;;;;;5.47;1.50;;;;;;;9.62;52.22;100346.78;5005665;28;20361;-73
2023/04/25 09:33:29;;;;;;;3.83;1.70;;;;;;;9.57;52.80;100352.38;5006648;28;20627;-70
2023/04/25 09:36:03;;;;;;;6.67;1.70;;;;;;;9.54;53.34;100346.41;5004940;28;20598;-71
2023/04/25 09:38:33;;;;;;;4.37;1.37;;;;;;;9.56;53.34;100349.81;5003540;28;20699;-72
2023/04/25 09:41:00;;;;;;;4.13;1.40;;;;;;;9.65;54.33;100350.09;5008071;28;20203;-71
2023/04/25 09:43:27;;;;;;;5.67;2.00;;;;;;;9.75;54.15;100345.88;5008789;28;20269;-69
2023/04/25 09:45:58;;;;;;;4.80;1.30;;;;;;;9.88;53.89;100350.38;4996253;28;20673;-69
2023/04/25 09:48:26;;;;;;;6.13;1.50;;;;;;;9.97;53.04;100358.63;5001514;28;20217;-70
2023/04/25 09:51:07;;;;;;;3.60;1.20;;;;;;;10.05;51.70;100356.31;5003869;28;20874;-70
2023/04/25 09:53:36;;;;;;;6.30;1.67;;;;;;;10.16;51.21;100354.78;5003397;28;20242;-73
2023/04/25 09:56:06;;;;;;;4.73;1.30;;;;;;;10.29;51.28;100358.34;5004779;28;20222;-71
2023/04/25 09:58:33;;;;;;;2.67;1.00;;;;;;;10.43;51.06;100363.59;5000133;28;20211;-71
2023/04/25 10:01:02;;;;;;;6.00;1.53;;;;;;;10.59;50.35;100355.41;5009985;28;20707;-69
2023/04/25 10:03:31;;;;;;;2.50;1.20;;;;;;;10.64;48.86;100354.16;5011654;28;20661;-70
2023/04/25 10:05:59;;;;;;;4.43;1.33;;;;;;;10.62;48.22;100363.19;5006467;28;20300;-69
2023/04/25 10:08:31;;;;;;;4.60;1.47;;;;;;;10.57;47.57;100362.69;5004839;28;20206;-70
2023/04/25 10:11:01;;;;;;;3.20;1.10;;;;;;;10.57;47.97;100363.50;5001539;28;20261;-72
2023/04/25 10:13:30;;;;;;;6.37;1.63;;;;;;;10.56;47.25;100371.63;5004850;28;20206;-70
2023/04/25 10:15:58;;;;;;;4.20;1.40;;;;;;;10.52;47.13;100362.13;5002102;28;20231;-69
2023/04/25 10:18:26;;;;;;;2.83;1.40;;;;;;;10.50;46.48;100366.69;5003001;28;20271;-70
2023/04/25 10:20:53;;;;;;;4.90;1.07;;;;;;;10.48;46.43;100365.94;5001679;28;20290;-70
2023/04/25 10:23:21;;;;;;;3.53;1.43;;;;;;;10.60;47.66;100362.44;5008006;28;20211;-70
2023/04/25 10:25:50;;;;;;;3.07;1.03;;;;;;;10.76;48.24;100365.78;5002233;28;20325;-69
2023/04/25 10:28:18;;;;;;;6.33;1.50;;;;;;;10.94;48.03;100366.31;5006725;28;20211;-70
2023/04/25 10:31:00;;;;;;;5.10;1.43;;;;;;;11.06;47.47;100355.69;5002585;28;20284;-70
2023/04/25 10:33:37;;;;;;;7.87;1.93;;;;;;;11.20;47.68;100359.19;4999205;28;20348;-70
2023/04/25 10:36:11;;;;;;;6.03;1.70;;;;;;;11.25;47.55;100362.38;5007866;28;20234;-71
2023/04/25 10:38:39;;;;;;;3.73;1.07;;;;;;;11.31;47.38;100356.59;5002456;28;20210;-70
2023/04/25 10:41:08;;;;;;;4.00;1.37;;;;;;;11.30;45.88;100357.56;5002151;28;20215;-70
2023/04/25 10:43:38;;;;;;;4.10;1.50;;;;;;;11.22;45.17;100367.91;5006109;28;20201;-72
2023/04/25 10:46:15;;;;;;;4.90;1.53;;;;;;;11.16;45.69;100379.84;5004947;28;20241;-70
2023/04/25 10:48:48;;;;;;;5.83;1.50;;;;;;;11.09;45.37;100381.25;5007097;28;20274;-70
2023/04/25 10:51:23;;;;;;;5.23;1.53;;;;;;;11.04;45.35;100383.38;5005692;28;20747;-69
2023/04/25 10:54:01;;;;;;;3.93;1.27;;;;;;;10.95;45.24;100389.34;5004527;28;20214;-69
2023/04/25 10:56:29;;;;;;;4.03;1.27;;;;;;;10.90;45.63;100392.34;5006993;28;20225;-72
2023/04/25 10:59:12;;;;;;;4.27;1.40;;;;;;;10.88;46.11;100388.06;5006777;28;20215;-70
2023/04/25 11:01:40;;;;;;;6.53;1.50;;;;;;;10.83;46.58;100398.19;5006132;28;20290;-69
2023/04/25 11:04:20;;;;;;;5.97;1.67;;;;;;;10.80;47.29;100393.91;5007841;28;20198;-70
2023/04/25 11:07:05;;;;;;;5.90;1.40;;;;;;;10.75;47.62;100398.69;5004842;28;20237;-70
2023/04/25 11:09:33;;;;;;;3.80;1.20;;;;;;;10.68;47.89;100381.44;5002529;28;20693;-72
2023/04/25 11:12:00;;;;;;;4.40;1.57;;;;;;;10.62;48.41;100384.50;5005893;28;20219;-73
2023/04/25 11:14:29;;;;;;;5.43;1.57;;;;;;;10.57;48.95;100389.31;5002223;28;20211;-73
2023/04/25 11:16:56;;;;;;;5.20;1.40;;;;;;;10.57;49.34;100391.97;5008375;28;20269;-71
2023/04/25 11:19:23;;;;;;;5.83;1.27;;;;;;;10.56;49.47;100390.28;5005052;28;20204;-72
2023/04/25 11:21:49;;;;;;;5.47;1.30;;;;;;;10.58;49.29;100404.31;5001394;28;20689;-71
2023/04/25 11:24:16;;;;;;;7.67;1.77;;;;;;;10.59;49.81;100404.19;5002556;28;20228;-72
2023/04/25 11:26:44;;;;;;;4.27;1.27;;;;;;;10.61;49.82;100396.13;5003384;28;20234;-72
2023/04/25 11:29:10;;;;;;;4.83;1.40;;;;;;;10.59;49.85;100403.34;4997120;28;20215;-72
2023/04/25 11:31:38;;;;;;;5.73;1.60;;;;;;;10.59;50.23;100404.19;5004605;28;20197;-72